Time;durP1;ratioP1;P1;durP2;ratioP2;P2;SDS_P1;SDS_P2;PMS_P1;PMS_P2;Temp;Humidity;BMP_temperature;BMP_pressure;BME280_temperature;BME280_humidity;BME280_pressure;Samples;Min_cycle;Max_cycle;Signal;HPM_P1;HPM_P2
2021/04/10 00:00:06;;;;;;;8.55;3.58;;;;;;;-139.48;100.00;61774.03;5058033;28;20047;-68
2021/04/10 00:02:51;;;;;;;9.35;4.57;;;;;;;-139.48;100.00;61774.03;5058055;28;20106;-68
2021/04/10 00:05:35;;;;;;;4.15;3.00;;;;;;;-139.48;100.00;61774.03;5058049;28;20059;-68
2021/04/10 00:08:19;;;;;;;5.40;2.67;;;;;;;-139.48;100.00;61774.03;5057905;28;20044;-68
2021/04/10 00:11:03;;;;;;;5.20;2.33;;;;;;;-139.48;100.00;61774.03;5073164;28;20083;-68
2021/04/10 00:13:47;;;;;;;8.75;2.50;;;;;;;-139.48;100.00;61774.03;5057949;28;20047;-68
2021/04/10 00:16:31;;;;;;;7.53;2.95;;;;;;;-139.48;100.00;61774.03;5057899;28;20047;-68
2021/04/10 00:19:15;;;;;;;6.07;2.60;;;;;;;-139.48;100.00;61774.03;5073003;28;20516;-68
2021/04/10 00:21:59;;;;;;;5.82;2.35;;;;;;;-139.48;100.00;61774.03;5073011;28;20101;-68
2021/04/10 00:24:43;;;;;;;7.60;2.45;;;;;;;-139.48;100.00;61774.03;5043821;28;20048;-69
2021/04/10 00:27:27;;;;;;;3.90;2.00;;;;;;;-139.48;100.00;61774.03;5072945;28;20135;-69
2021/04/10 00:30:13;;;;;;;2.63;1.35;;;;;;;-139.48;100.00;61774.03;5057654;28;20132;-68
2021/04/10 00:32:57;;;;;;;3.45;2.15;;;;;;;-139.48;100.00;61774.03;5074564;28;20049;-65
2021/04/10 00:35:41;;;;;;;4.70;2.17;;;;;;;-139.48;100.00;61774.03;5057780;28;20090;-66
2021/04/10 00:38:30;;;;;;;5.43;1.88;;;;;;;-139.48;100.00;61774.03;5057539;28;20421;-66
2021/04/10 00:41:14;;;;;;;5.30;2.05;;;;;;;-139.48;100.00;61774.03;5057994;28;20047;-65
2021/04/10 00:43:58;;;;;;;5.63;2.05;;;;;;;-139.48;100.00;61774.03;5057672;28;20069;-66
2021/04/10 00:46:42;;;;;;;4.05;1.38;;;;;;;-139.48;100.00;61774.03;5043204;28;20047;-66
2021/04/10 00:49:26;;;;;;;3.40;1.67;;;;;;;-139.48;100.00;61774.03;5059643;28;20079;-66
2021/04/10 00:52:11;;;;;;;2.88;1.52;;;;;;;-139.48;100.00;61774.03;5047379;28;20098;-66
2021/04/10 00:54:55;;;;;;;3.97;1.73;;;;;;;-139.48;100.00;61774.03;5076073;28;20550;-65
2021/04/10 00:57:40;;;;;;;5.70;1.50;;;;;;;-139.48;100.00;61774.03;5076323;28;20128;-66
2021/04/10 01:00:23;;;;;;;2.42;1.70;;;;;;;-139.48;100.00;61774.03;5060796;28;20484;-66
2021/04/10 01:03:08;;;;;;;4.85;1.50;;;;;;;-139.48;100.00;61774.03;5061060;28;20405;-66
2021/04/10 01:05:52;;;;;;;4.18;1.63;;;;;;;-139.48;100.00;61774.03;5060714;28;20048;-65
2021/04/10 01:08:36;;;;;;;;;;;;;;;-139.48;100.00;61774.03;5076370;28;20480;-64
2021/04/10 01:11:37;;;;;;;4.28;1.42;;;;;;;-139.48;100.00;61774.03;5076078;28;19966;-66
2021/04/10 01:14:51;;;;;;;2.70;1.45;;;;;;;-139.48;100.00;61774.03;5060745;28;20121;-65
2021/04/10 01:17:44;;;;;;;3.08;1.45;;;;;;;-139.48;100.00;61774.03;5076011;28;20047;-66
2021/04/10 01:20:48;;;;;;;2.05;1.45;;;;;;;-139.48;100.00;61774.03;5046666;28;20516;-66
2021/04/10 01:24:10;;;;;;;3.60;1.83;;;;;;;-139.48;100.00;61774.03;5075778;28;20409;-66
2021/04/10 01:27:17;;;;;;;2.08;1.27;;;;;;;-139.48;100.00;61774.03;5060311;28;20094;-65
2021/04/10 01:30:15;;;;;;;6.00;1.60;;;;;;;-139.48;100.00;61774.03;5060562;28;20114;-65
2021/04/10 01:33:14;;;;;;;3.75;1.67;;;;;;;-139.48;100.00;61774.03;5060311;28;20047;-66
2021/04/10 01:35:59;;;;;;;2.25;1.40;;;;;;;-139.48;100.00;61774.03;5060431;28;20051;-64
2021/04/10 01:38:47;;;;;;;3.72;1.70;;;;;;;-139.48;100.00;61774.03;5060648;28;20090;-64
2021/04/10 01:41:31;;;;;;;2.28;1.52;;;;;;;-139.48;100.00;61774.03;5060105;28;20078;-64
2021/04/10 01:44:17;;;;;;;5.85;1.90;;;;;;;-139.48;100.00;61774.03;5060295;28;20523;-65
2021/04/10 01:47:03;;;;;;;6.63;1.90;;;;;;;-139.48;100.00;61774.03;5045802;28;20467;-66
2021/04/10 01:49:49;;;;;;;3.28;1.80;;;;;;;-139.48;100.00;61774.03;5059931;28;20086;-64
2021/04/10 01:52:33;;;;;;;7.30;1.90;;;;;;;-139.48;100.00;61774.03;5075330;28;20050;-65
2021/04/10 01:55:18;;;;;;;4.40;1.35;;;;;;;-139.48;100.00;61774.03;5046093;28;20054;-65
2021/04/10 01:58:02;;;;;;;4.40;1.45;;;;;;;-139.48;100.00;61774.03;5059818;28;20412;-65
2021/04/10 02:00:47;;;;;;;3.30;1.40;;;;;;;-139.48;100.00;61774.03;5059001;28;20051;-65
2021/04/10 02:03:31;;;;;;;1.75;1.13;;;;;;;-139.48;100.00;61774.03;5060021;28;20425;-65
2021/04/10 02:06:16;;;;;;;4.82;1.83;;;;;;;-139.48;100.00;61774.03;5075042;28;20055;-65
2021/04/10 02:09:00;;;;;;;2.42;1.60;;;;;;;-139.48;100.00;61774.03;5059716;28;20039;-66
2021/04/10 02:11:49;;;;;;;2.40;1.75;;;;;;;-139.48;100.00;61774.03;5060107;28;20040;-65
2021/04/10 02:14:33;;;;;;;5.45;1.50;;;;;;;-139.48;100.00;61774.03;5059468;28;20046;-66
2021/04/10 02:17:18;;;;;;;7.28;2.15;;;;;;;-139.48;100.00;61774.03;5059523;28;20097;-66
2021/04/10 02:20:07;;;;;;;3.78;1.45;;;;;;;-139.48;100.00;61774.03;5074720;28;20047;-65
2021/04/10 02:22:52;;;;;;;5.47;1.70;;;;;;;-139.48;100.00;61774.03;5060229;28;20137;-65
2021/04/10 02:25:36;;;;;;;4.25;1.92;;;;;;;-139.48;100.00;61774.03;5059644;28;20574;-63
2021/04/10 02:28:20;;;;;;;5.43;2.10;;;;;;;-139.48;100.00;61774.03;5059154;28;20090;-66
2021/04/10 02:31:05;;;;;;;2.97;1.88;;;;;;;-139.48;100.00;61774.03;5059369;28;20063;-65
2021/04/10 02:33:50;;;;;;;4.55;1.65;;;;;;;-139.48;100.00;61774.03;5059414;28;20047;-65
2021/04/10 02:36:36;;;;;;;4.53;1.70;;;;;;;-139.48;100.00;61774.03;5059105;28;20110;-66
2021/04/10 02:39:22;;;;;;;5.10;2.38;;;;;;;-139.48;100.00;61774.03;5059286;28;20066;-66
2021/04/10 02:42:07;;;;;;;4.53;2.00;;;;;;;-139.48;100.00;61774.03;5045056;28;20133;-65
2021/04/10 02:44:53;;;;;;;2.50;1.63;;;;;;;-139.48;100.00;61774.03;5059478;28;20044;-64
2021/04/10 02:47:37;;;;;;;3.95;1.55;;;;;;;-139.48;100.00;61774.03;5074127;28;20071;-66
2021/04/10 02:50:22;;;;;;;4.88;2.08;;;;;;;-139.48;100.00;61774.03;5058689;28;20523;-65
2021/04/10 02:53:10;;;;;;;4.68;2.20;;;;;;;-139.48;100.00;61774.03;5044619;28;20102;-65
2021/04/10 02:55:56;;;;;;;3.25;1.50;;;;;;;-139.48;100.00;61774.03;5074190;28;20559;-66
2021/04/10 02:58:40;;;;;;;3.33;1.63;;;;;;;-139.48;100.00;61774.03;5058733;28;20106;-65
2021/04/10 03:01:25;;;;;;;5.07;1.77;;;;;;;-139.48;100.00;61774.03;5044708;28;20132;-66
2021/04/10 03:04:09;;;;;;;;;;;;;;;-139.48;100.00;61774.03;5059086;28;20123;-66
2021/04/10 03:06:53;;;;;;;7.38;1.77;;;;;;;-139.48;100.00;61774.03;5058753;28;20444;-65
2021/04/10 03:09:41;;;;;;;3.78;1.80;;;;;;;-139.48;100.00;61774.03;5044402;28;20562;-65
2021/04/10 03:12:26;;;;;;;4.65;1.50;;;;;;;-139.48;100.00;61774.03;5058465;28;20528;-65
2021/04/10 03:15:15;;;;;;;2.33;1.58;;;;;;;-139.48;100.00;61774.03;5058681;28;20047;-65
2021/04/10 03:17:59;;;;;;;3.33;1.90;;;;;;;-139.48;100.00;61774.03;5058328;28;20065;-65
2021/04/10 03:20:44;;;;;;;2.80;1.30;;;;;;;-139.48;100.00;61774.03;5044445;28;20043;-65
2021/04/10 03:23:28;;;;;;;3.63;1.63;;;;;;;-139.48;100.00;61774.03;5058730;28;20043;-65
2021/04/10 03:26:12;;;;;;;1.83;1.58;;;;;;;-139.48;100.00;61774.03;5073626;28;20120;-65
2021/04/10 03:28:56;;;;;;;;;;;;;;;-139.48;100.00;61774.03;5044537;28;20412;-65
2021/04/10 03:31:41;;;;;;;4.90;1.60;;;;;;;-139.48;100.00;61774.03;5073571;28;20003;-65
2021/04/10 03:34:24;;;;;;;5.13;1.67;;;;;;;-139.48;100.00;61774.03;5058098;28;20047;-65
2021/04/10 03:37:09;;;;;;;3.42;1.63;;;;;;;-139.48;100.00;61774.03;5058268;28;20537;-66
2021/04/10 03:39:53;;;;;;;9.45;1.40;;;;;;;-139.48;100.00;61774.03;5058262;28;20102;-66
2021/04/10 03:42:39;;;;;;;3.35;1.60;;;;;;;-139.48;100.00;61774.03;5057997;28;20127;-64
2021/04/10 03:45:23;;;;;;;2.67;1.45;;;;;;;-139.48;100.00;61774.03;5073309;28;20520;-66
2021/04/10 03:48:07;;;;;;;6.20;2.83;;;;;;;-139.48;100.00;61774.03;5058056;28;20504;-66
2021/04/10 03:50:51;;;;;;;6.82;2.00;;;;;;;-139.48;100.00;61774.03;5044070;28;20109;-64
2021/04/10 03:53:35;;;;;;;5.20;1.70;;;;;;;-139.48;100.00;61774.03;5073309;28;20055;-66
2021/04/10 03:56:19;;;;;;;4.68;1.90;;;;;;;-139.48;100.00;61774.03;5073287;28;20138;-66
2021/04/10 03:59:03;;;;;;;9.45;1.83;;;;;;;-139.48;100.00;61774.03;5058059;28;20459;-65
2021/04/10 04:01:46;;;;;;;5.32;1.55;;;;;;;-139.48;100.00;61774.03;5073472;28;20051;-65
2021/04/10 04:04:31;;;;;;;7.03;1.88;;;;;;;-139.48;100.00;61774.03;5072962;28;20101;-65
2021/04/10 04:07:15;;;;;;;4.63;1.60;;;;;;;-139.48;100.00;61774.03;5073154;28;20047;-66
2021/04/10 04:10:00;;;;;;;3.55;1.45;;;;;;;-139.48;100.00;61774.03;5072824;28;20083;-65
2021/04/10 04:12:44;;;;;;;3.00;1.65;;;;;;;-139.48;100.00;61774.03;5057970;28;20083;-64
2021/04/10 04:15:28;;;;;;;3.55;1.40;;;;;;;-139.48;100.00;61774.03;5057973;28;20051;-66
2021/04/10 04:18:12;;;;;;;3.70;1.73;;;;;;;-139.48;100.00;61774.03;5057625;28;20122;-65
2021/04/10 04:20:56;;;;;;;2.05;1.50;;;;;;;-139.48;100.00;61774.03;5073099;28;20102;-66
2021/04/10 04:23:39;;;;;;;7.65;2.13;;;;;;;-139.48;100.00;61774.03;5044668;28;20113;-66
2021/04/10 04:26:24;;;;;;;3.72;1.73;;;;;;;-139.48;100.00;61774.03;5076949;28;20106;-66
2021/04/10 04:29:08;;;;;;;3.03;1.60;;;;;;;-139.48;100.00;61774.03;5076440;28;20570;-66
2021/04/10 04:31:52;;;;;;;3.53;1.80;;;;;;;-139.48;100.00;61774.03;5061687;28;20512;-65
2021/04/10 04:34:36;;;;;;;6.47;1.58;;;;;;;-139.48;100.00;61774.03;5047281;28;20047;-65
2021/04/10 04:37:20;;;;;;;4.72;1.92;;;;;;;-139.48;100.00;61774.03;5061253;28;20044;-66
2021/04/10 04:40:08;;;;;;;7.00;2.20;;;;;;;-139.48;100.00;61774.03;5076665;28;20051;-66
2021/04/10 04:42:52;;;;;;;3.03;1.80;;;;;;;-139.48;100.00;61774.03;5076349;28;20074;-66
2021/04/10 04:45:36;;;;;;;1.75;1.38;;;;;;;-139.48;100.00;61774.03;5061479;28;20428;-65
2021/04/10 04:48:20;;;;;;;4.43;1.80;;;;;;;-139.48;100.00;61774.03;5076115;28;20043;-65
2021/04/10 04:51:04;;;;;;;2.20;1.50;;;;;;;-139.48;100.00;61774.03;5076203;28;20416;-65
2021/04/10 04:53:48;;;;;;;5.10;1.92;;;;;;;-139.48;100.00;61774.03;5060998;28;20055;-65
2021/04/10 04:56:32;;;;;;;4.70;2.05;;;;;;;-139.48;100.00;61774.03;5060971;28;20420;-66
2021/04/10 04:59:16;;;;;;;1.75;1.38;;;;;;;-139.48;100.00;61774.03;5060893;28;20097;-65
2021/04/10 05:02:00;;;;;;;3.65;1.10;;;;;;;-139.48;100.00;61774.03;5060894;28;20090;-66
2021/04/10 05:04:44;;;;;;;4.18;1.92;;;;;;;-139.48;100.00;61774.03;5061113;28;20071;-66
2021/04/10 05:07:28;;;;;;;4.85;2.03;;;;;;;-139.48;100.00;61774.03;5046626;28;20071;-65
2021/04/10 05:10:12;;;;;;;5.47;2.58;;;;;;;-139.48;100.00;61774.03;5075856;28;20051;-66
2021/04/10 05:12:56;;;;;;;4.05;1.67;;;;;;;-139.48;100.00;61774.03;5060942;28;20059;-66
2021/04/10 05:15:41;;;;;;;4.80;1.55;;;;;;;-139.48;100.00;61774.03;5060561;28;20043;-65
2021/04/10 05:18:25;;;;;;;7.03;2.10;;;;;;;-139.48;100.00;61774.03;5075877;28;20109;-66
2021/04/10 05:21:09;;;;;;;4.25;1.95;;;;;;;-139.48;100.00;61774.03;5075943;28;20143;-66
2021/04/10 05:23:53;;;;;;;3.53;1.35;;;;;;;-139.48;100.00;61774.03;5075917;28;20047;-65
2021/04/10 05:26:37;;;;;;;3.45;1.38;;;;;;;-139.48;100.00;61774.03;5060387;28;20051;-66
2021/04/10 05:29:21;;;;;;;2.75;1.48;;;;;;;-139.48;100.00;61774.03;5075500;28;20101;-65
2021/04/10 05:32:05;;;;;;;3.25;2.35;;;;;;;-139.48;100.00;61774.03;5075514;28;20554;-65
2021/04/10 05:34:49;;;;;;;3.13;1.30;;;;;;;-139.48;100.00;61774.03;5060253;28;20093;-66
2021/04/10 05:37:33;;;;;;;4.32;1.77;;;;;;;-139.48;100.00;61774.03;5046118;28;20471;-66
2021/04/10 05:40:18;;;;;;;4.53;1.42;;;;;;;-139.48;100.00;61774.03;5060167;28;20507;-66
2021/04/10 05:43:02;;;;;;;3.25;1.75;;;;;;;-139.48;100.00;61774.03;5060384;28;20043;-65
2021/04/10 05:45:45;;;;;;;3.55;1.30;;;;;;;-139.48;100.00;61774.03;5060037;28;20052;-66
2021/04/10 05:48:30;;;;;;;2.83;1.63;;;;;;;-139.48;100.00;61774.03;5060139;28;20052;-66
2021/04/10 05:51:13;;;;;;;4.55;1.80;;;;;;;-139.48;100.00;61774.03;5075128;28;20063;-65
2021/04/10 05:53:57;;;;;;;4.53;1.77;;;;;;;-139.48;100.00;61774.03;5060169;28;20098;-66
2021/04/10 05:56:41;;;;;;;6.22;2.03;;;;;;;-139.48;100.00;61774.03;5060147;28;20127;-65
2021/04/10 05:59:25;;;;;;;2.40;1.52;;;;;;;-139.48;100.00;61774.03;5045678;28;20098;-65
2021/04/10 06:02:09;;;;;;;2.28;1.70;;;;;;;-139.48;100.00;61774.03;5075212;28;20087;-66
2021/04/10 06:04:53;;;;;;;3.30;1.20;;;;;;;-139.48;100.00;61774.03;5060012;28;20141;-66
2021/04/10 06:07:37;;;;;;;4.75;1.48;;;;;;;-139.48;100.00;61774.03;5074933;28;20048;-65
2021/04/10 06:10:21;;;;;;;4.38;1.40;;;;;;;-139.48;100.00;61774.03;5059575;28;20507;-65
2021/04/10 06:13:05;;;;;;;4.53;1.63;;;;;;;-139.48;100.00;61774.03;5059900;28;20150;-66
2021/04/10 06:15:49;;;;;;;5.32;1.85;;;;;;;-139.48;100.00;61774.03;5045909;28;20051;-65
2021/04/10 06:18:37;;;;;;;4.15;1.88;;;;;;;-139.48;100.00;61774.03;5059699;28;20039;-66
2021/04/10 06:21:21;;;;;;;4.93;1.80;;;;;;;-139.48;100.00;61774.03;5074765;28;20082;-66
2021/04/10 06:24:05;;;;;;;5.57;1.80;;;;;;;-139.48;100.00;61774.03;5059610;28;20127;-66
2021/04/10 06:26:49;;;;;;;;;;;;;;;-139.48;100.00;61774.03;5059700;28;20472;-66
2021/04/10 06:29:33;;;;;;;4.15;1.55;;;;;;;-139.48;100.00;61774.03;5059168;28;20430;-66
2021/04/10 06:32:17;;;;;;;3.45;1.58;;;;;;;-139.48;100.00;61774.03;5092394;22;20502;-68
2021/04/10 06:35:02;;;;;;;8.70;1.65;;;;;;;-139.48;100.00;61774.03;5019591;28;20513;-68
2021/04/10 06:37:46;;;;;;;4.22;1.80;;;;;;;-139.48;100.00;61774.03;5034264;28;20107;-68
2021/04/10 06:40:30;;;;;;;10.13;1.92;;;;;;;-139.48;100.00;61774.03;5019643;28;20076;-69
2021/04/10 06:43:15;;;;;;;5.28;1.80;;;;;;;-139.48;100.00;61774.03;5034245;28;20079;-68
2021/04/10 06:46:00;;;;;;;3.25;1.70;;;;;;;-139.48;100.00;61774.03;5034080;28;20158;-67
2021/04/10 06:48:45;;;;;;;1.30;1.20;;;;;;;-139.48;100.00;61774.03;5019347;28;20084;-68
2021/04/10 06:51:29;;;;;;;1.45;1.33;;;;;;;-139.48;100.00;61774.03;5034239;28;20047;-68
2021/04/10 06:54:16;;;;;;;3.53;1.60;;;;;;;-139.48;100.00;61774.03;5019034;28;20072;-68
2021/04/10 06:57:14;;;;;;;3.72;2.08;;;;;;;-139.48;100.00;61774.03;5033882;28;20103;-67
2021/04/10 07:00:02;;;;;;;2.25;1.30;;;;;;;-139.48;100.00;61774.03;5018935;28;20099;-67
2021/04/10 07:02:48;;;;;;;2.83;1.48;;;;;;;-139.48;100.00;61774.03;5018779;28;20563;-68
2021/04/10 07:05:32;;;;;;;4.32;2.00;;;;;;;-139.48;100.00;61774.03;5019391;28;20560;-68
2021/04/10 07:08:16;;;;;;;3.63;1.45;;;;;;;-139.48;100.00;61774.03;5034088;28;20501;-68
2021/04/10 07:11:00;;;;;;;3.08;1.63;;;;;;;-139.48;100.00;61774.03;5019153;28;20115;-68
2021/04/10 07:13:43;;;;;;;3.47;2.00;;;;;;;-139.48;100.00;61774.03;5018723;28;20052;-67
2021/04/10 07:16:29;;;;;;;1.60;1.42;;;;;;;-139.48;100.00;61774.03;5034194;28;20103;-68
2021/04/10 07:19:13;;;;;;;5.63;1.55;;;;;;;-139.48;100.00;61774.03;5004720;28;20124;-67
2021/04/10 07:22:01;;;;;;;;;;;;;;;-139.48;100.00;61774.03;5019123;28;20423;-67
2021/04/10 07:24:47;;;;;;;3.25;1.58;;;;;;;-139.48;100.00;61774.03;5018799;28;20017;-67
2021/04/10 07:27:31;;;;;;;2.17;1.38;;;;;;;-139.48;100.00;61774.03;5018636;28;20452;-67
2021/04/10 07:30:15;;;;;;;3.45;1.60;;;;;;;-139.48;100.00;61774.03;5018500;28;20052;-67
2021/04/10 07:33:00;;;;;;;3.35;1.35;;;;;;;-139.48;100.00;61774.03;5004545;28;20051;-66
2021/04/10 07:35:43;;;;;;;3.78;1.42;;;;;;;-139.48;100.00;61774.03;5018660;28;20103;-66
2021/04/10 07:38:30;;;;;;;2.03;1.23;;;;;;;-139.48;100.00;61774.03;5018476;28;20072;-67
2021/04/10 07:41:13;;;;;;;2.85;1.02;;;;;;;-139.48;100.00;61774.03;5018757;28;20052;-68
2021/04/10 07:43:57;;;;;;;3.80;1.50;;;;;;;-139.48;100.00;61774.03;5033544;28;20053;-68
2021/04/10 07:46:41;;;;;;;3.08;1.60;;;;;;;-139.48;100.00;61774.03;5018216;28;20049;-68
2021/04/10 07:49:27;;;;;;;1.50;1.40;;;;;;;-139.48;100.00;61774.03;5018520;28;20044;-68
2021/04/10 07:52:11;;;;;;;5.78;1.70;;;;;;;-139.48;100.00;61774.03;5004510;28;20044;-68
2021/04/10 07:54:55;;;;;;;3.10;1.50;;;;;;;-139.48;100.00;61774.03;5018338;28;20188;-68
2021/04/10 07:57:38;;;;;;;3.00;1.45;;;;;;;-139.48;100.00;61774.03;5018452;28;20044;-68
2021/04/10 08:00:40;;;;;;;4.43;1.77;;;;;;;-139.48;100.00;61774.03;5037550;28;20051;-68
2021/04/10 08:03:26;;;;;;;3.55;1.40;;;;;;;-139.48;100.00;61774.03;5022655;28;20406;-68
2021/04/10 08:06:15;;;;;;;2.42;1.30;;;;;;;-139.48;100.00;61774.03;5037225;28;20521;-68
2021/04/10 08:09:00;;;;;;;2.80;1.45;;;;;;;-139.48;100.00;61774.03;5022439;28;20055;-68
2021/04/10 08:11:44;;;;;;;2.28;1.48;;;;;;;-139.48;100.00;61774.03;5022195;28;20517;-68
2021/04/10 08:14:38;;;;;;;1.90;0.90;;;;;;;-139.48;100.00;61774.03;5022261;28;20571;-68
2021/04/10 08:17:33;;;;;;;;;;;;;;;-139.48;100.00;61774.03;5008564;28;20114;-67
2021/04/10 08:20:18;;;;;;;4.55;1.63;;;;;;;-139.48;100.00;61774.03;5021856;28;19919;-68
2021/04/10 08:23:21;;;;;;;2.80;1.60;;;;;;;-139.48;100.00;61774.03;5036821;28;20541;-68
2021/04/10 08:26:05;;;;;;;3.00;1.45;;;;;;;-139.48;100.00;61774.03;5022023;28;20047;-68
2021/04/10 08:28:49;;;;;;;3.90;1.70;;;;;;;-139.48;100.00;61774.03;5021753;28;20115;-68
2021/04/10 08:31:33;;;;;;;2.13;1.40;;;;;;;-139.48;100.00;61774.03;5036361;28;20048;-68
2021/04/10 08:34:17;;;;;;;4.97;1.48;;;;;;;-139.48;100.00;61774.03;5036706;28;20056;-68
2021/04/10 08:37:03;;;;;;;2.10;1.17;;;;;;;-139.48;100.00;61774.03;5036833;28;20048;-68
2021/04/10 08:39:49;;;;;;;2.60;1.60;;;;;;;-139.48;100.00;61774.03;5021546;28;20460;-68
2021/04/10 08:42:33;;;;;;;4.70;1.70;;;;;;;-139.48;100.00;61774.03;5036589;28;20052;-68
2021/04/10 08:45:17;;;;;;;4.53;1.52;;;;;;;-139.48;100.00;61774.03;5022079;28;20159;-68
2021/04/10 08:48:04;;;;;;;5.10;1.45;;;;;;;-139.48;100.00;61774.03;5021634;28;20040;-67
2021/04/10 08:50:51;;;;;;;2.53;1.70;;;;;;;-139.48;100.00;61774.03;5021703;28;20087;-68
2021/04/10 08:53:39;;;;;;;1.25;1.15;;;;;;;-139.48;100.00;61774.03;5036310;28;20561;-68
2021/04/10 08:56:24;;;;;;;1.65;1.15;;;;;;;-139.48;100.00;61774.03;5036379;28;20103;-68
2021/04/10 08:59:13;;;;;;;3.60;1.80;;;;;;;-139.48;100.00;61774.03;5021739;28;20080;-68
2021/04/10 09:02:19;;;;;;;2.05;1.23;;;;;;;-139.48;100.00;61774.03;5021725;28;20122;-67
2021/04/10 09:05:05;;;;;;;3.25;1.42;;;;;;;-139.48;100.00;61774.03;5008203;28;20060;-67
2021/04/10 09:07:50;;;;;;;3.92;1.67;;;;;;;-139.48;100.00;61774.03;5021695;28;20490;-68
2021/04/10 09:10:33;;;;;;;2.40;1.40;;;;;;;-139.48;100.00;61774.03;5021167;28;20095;-67
2021/04/10 09:13:17;;;;;;;3.45;1.55;;;;;;;-139.48;100.00;61774.03;5036320;28;20099;-67
2021/04/10 09:16:24;;;;;;;2.25;1.45;;;;;;;-139.48;100.00;61774.03;5035918;28;20123;-67
2021/04/10 09:19:11;;;;;;;2.83;1.48;;;;;;;-139.48;100.00;61774.03;5035778;28;20103;-67
2021/04/10 09:21:59;;;;;;;1.73;1.30;;;;;;;-139.48;100.00;61774.03;5035939;28;20673;-67
2021/04/10 09:24:45;;;;;;;6.05;1.63;;;;;;;-139.48;100.00;61774.03;5020740;28;20204;-67
2021/04/10 09:27:30;;;;;;;2.17;1.58;;;;;;;-139.48;100.00;61774.03;5006934;28;20581;-67
2021/04/10 09:30:14;;;;;;;1.25;0.93;;;;;;;-139.48;100.00;61774.03;5035862;28;20079;-68
2021/04/10 09:32:58;;;;;;;1.05;0.90;;;;;;;-139.48;100.00;61774.03;5035397;28;20140;-68
2021/04/10 09:35:42;;;;;;;3.05;1.40;;;;;;;-139.48;100.00;61774.03;5020483;28;20048;-66
2021/04/10 09:38:45;;;;;;;3.03;1.40;;;;;;;-139.48;100.00;61774.03;5020678;28;20048;-68
2021/04/10 09:41:55;;;;;;;2.28;1.60;;;;;;;-139.48;100.00;61774.03;5020382;28;20071;-68
2021/04/10 09:45:09;;;;;;;1.98;1.10;;;;;;;-139.48;100.00;61774.03;5020879;28;20048;-67
2021/04/10 09:47:55;;;;;;;3.15;1.60;;;;;;;-139.48;100.00;61774.03;5028147;28;20052;-68
2021/04/10 09:50:41;;;;;;;1.83;1.40;;;;;;;-139.48;100.00;61774.03;5035188;28;20052;-67
2021/04/10 09:53:27;;;;;;;7.95;1.77;;;;;;;-139.48;100.00;61774.03;5020320;28;20080;-66
2021/04/10 09:56:12;;;;;;;1.90;1.50;;;;;;;-139.48;100.00;61774.03;5006362;28;20064;-68
2021/04/10 09:59:02;;;;;;;2.20;1.30;;;;;;;-139.48;100.00;61774.03;5020495;28;20460;-68
2021/04/10 10:01:46;;;;;;;2.10;1.20;;;;;;;-139.48;100.00;61774.03;5019994;28;20091;-68
2021/04/10 10:04:30;;;;;;;2.65;1.60;;;;;;;-139.48;100.00;61774.03;5035233;28;20498;-67
2021/04/10 10:07:14;;;;;;;1.75;1.05;;;;;;;-139.48;100.00;61774.03;5006302;28;20128;-66
2021/04/10 10:10:06;;;;;;;3.20;1.40;;;;;;;-139.48;100.00;61774.03;5005948;28;20128;-67
2021/04/10 10:12:59;;;;;;;4.00;2.08;;;;;;;-139.48;100.00;61774.03;5034958;28;20051;-65
2021/04/10 10:15:44;;;;;;;3.08;1.23;;;;;;;-139.48;100.00;61774.03;5034778;28;20045;-67
2021/04/10 10:18:39;;;;;;;1.67;1.05;;;;;;;-139.48;100.00;61774.03;5006077;28;20060;-67
2021/04/10 10:21:24;;;;;;;1.95;1.20;;;;;;;-139.48;100.00;61774.03;5018984;28;20498;-68
2021/04/10 10:24:09;;;;;;;2.60;1.35;;;;;;;-139.48;100.00;61774.03;5019778;28;20048;-68
2021/04/10 10:26:53;;;;;;;3.30;1.23;;;;;;;-139.48;100.00;61774.03;5006049;28;20052;-67
2021/04/10 10:29:37;;;;;;;1.98;1.30;;;;;;;-139.48;100.00;61774.03;5005707;28;20044;-68
2021/04/10 10:32:20;;;;;;;3.78;1.42;;;;;;;-139.48;100.00;61774.03;5019471;28;20056;-68
2021/04/10 10:35:08;;;;;;;1.83;1.17;;;;;;;-139.48;100.00;61774.03;5034607;28;20049;-67
2021/04/10 10:37:52;;;;;;;2.05;1.30;;;;;;;-139.48;100.00;61774.03;5005635;28;20520;-68
2021/04/10 10:40:36;;;;;;;4.43;1.40;;;;;;;-139.48;100.00;61774.03;5019515;28;20562;-68
2021/04/10 10:43:23;;;;;;;2.70;1.20;;;;;;;-139.48;100.00;61774.03;5019250;28;20076;-67
2021/04/10 10:46:10;;;;;;;1.60;1.10;;;;;;;-139.48;100.00;61774.03;5034426;28;20048;-68
2021/04/10 10:48:54;;;;;;;2.13;1.05;;;;;;;-139.48;100.00;61774.03;5019017;28;20052;-68
2021/04/10 10:51:40;;;;;;;1.33;1.00;;;;;;;-139.48;100.00;61774.03;5019058;28;20525;-68
2021/04/10 10:54:35;;;;;;;1.00;0.90;;;;;;;-139.48;100.00;61774.03;5019140;28;20045;-67
2021/04/10 10:57:19;;;;;;;3.42;1.00;;;;;;;-139.48;100.00;61774.03;5019428;28;20526;-68
2021/04/10 11:00:08;;;;;;;2.08;1.10;;;;;;;-139.48;100.00;61774.03;5019043;28;20580;-68
2021/04/10 11:02:52;;;;;;;2.42;0.93;;;;;;;-139.48;100.00;61774.03;5034124;28;20048;-68
2021/04/10 11:05:36;;;;;;;1.48;0.60;;;;;;;-139.48;100.00;61774.03;5005295;28;20471;-68
2021/04/10 11:08:23;;;;;;;2.65;1.20;;;;;;;-139.48;100.00;61774.03;5033779;28;20140;-67
2021/04/10 11:11:08;;;;;;;2.88;1.48;;;;;;;-139.48;100.00;61774.03;5019035;28;20140;-67
2021/04/10 11:13:52;;;;;;;5.70;1.30;;;;;;;-139.48;100.00;61774.03;5018695;28;20513;-68
2021/04/10 11:16:43;;;;;;;2.25;1.30;;;;;;;-139.48;100.00;61774.03;5018732;28;20079;-67
2021/04/10 11:19:29;;;;;;;3.65;1.60;;;;;;;-139.48;100.00;61774.03;5033559;28;20111;-67
2021/04/10 11:22:15;;;;;;;2.17;1.40;;;;;;;-139.48;100.00;61774.03;5018587;28;20119;-67
2021/04/10 11:25:00;;;;;;;5.32;1.25;;;;;;;-139.48;100.00;61774.03;5033408;28;20219;-67
2021/04/10 11:27:47;;;;;;;3.80;1.30;;;;;;;-139.48;100.00;61774.03;5018557;28;20183;-67
2021/04/10 11:30:31;;;;;;;2.15;1.45;;;;;;;-139.48;100.00;61774.03;5018458;28;20106;-67
2021/04/10 11:33:41;;;;;;;1.92;1.30;;;;;;;-139.48;100.00;61774.03;5018168;28;20052;-67
2021/04/10 11:36:25;;;;;;;3.08;1.55;;;;;;;-139.48;100.00;61774.03;5033686;28;20088;-68
2021/04/10 11:39:09;;;;;;;1.23;1.13;;;;;;;-139.48;100.00;61774.03;5018673;28;20095;-68
2021/04/10 11:41:53;;;;;;;1.20;0.95;;;;;;;-139.48;100.00;61774.03;5018378;28;20504;-68
2021/04/10 11:44:37;;;;;;;1.35;1.15;;;;;;;-139.48;100.00;61774.03;5033644;28;20507;-67
2021/04/10 11:47:23;;;;;;;2.03;1.15;;;;;;;-139.48;100.00;61774.03;5018900;28;20048;-68
2021/04/10 11:50:21;;;;;;;3.20;0.95;;;;;;;-139.48;100.00;61774.03;5004432;28;20048;-68
2021/04/10 11:53:12;;;;;;;2.75;1.70;;;;;;;-139.48;100.00;61774.03;5018597;28;20048;-68
2021/04/10 11:55:57;;;;;;;2.75;1.10;;;;;;;-139.48;100.00;61774.03;5018480;28;20456;-68
2021/04/10 11:58:41;;;;;;;3.47;1.30;;;;;;;-139.48;100.00;61774.03;5004347;28;20172;-67
2021/04/10 12:01:25;;;;;;;1.80;1.13;;;;;;;-139.48;100.00;61774.03;5018381;28;20052;-69
2021/04/10 12:04:11;;;;;;;1.55;1.17;;;;;;;-139.48;100.00;61774.03;5004285;28;20068;-67
2021/04/10 12:07:05;;;;;;;1.10;1.00;;;;;;;-139.48;100.00;61774.03;5033034;28;20063;-68
2021/04/10 12:09:50;;;;;;;2.25;1.10;;;;;;;-139.48;100.00;61774.03;5017977;28;20047;-68
2021/04/10 12:12:34;;;;;;;2.70;1.30;;;;;;;-139.48;100.00;61774.03;5018489;28;20167;-69
2021/04/10 12:15:48;;;;;;;3.30;1.20;;;;;;;-139.48;100.00;61774.03;5018265;28;20048;-68
2021/04/10 12:18:32;;;;;;;2.70;1.27;;;;;;;-139.48;100.00;61774.03;5018218;28;20052;-67
2021/04/10 12:21:16;;;;;;;1.67;1.33;;;;;;;-139.48;100.00;61774.03;5004262;28;20052;-68
2021/04/10 12:24:00;;;;;;;2.78;1.60;;;;;;;-139.48;100.00;61774.03;5033100;28;20052;-68
2021/04/10 12:26:47;;;;;;;3.42;1.20;;;;;;;-139.48;100.00;61774.03;5004567;28;20048;-68
2021/04/10 12:29:31;;;;;;;1.60;1.27;;;;;;;-139.48;100.00;61774.03;5004497;28;20553;-68
2021/04/10 12:32:15;;;;;;;1.33;1.13;;;;;;;-139.48;100.00;61774.03;5036858;22;20114;-66
2021/04/10 12:34:59;;;;;;;1.98;1.25;;;;;;;-139.48;100.00;61774.03;5072693;28;20051;-65